Cleveland, Ohio
Traffic Map
Current Weather Conditions
Cleveland, Ohio
Overcast Haze
Overcast
38°
Feels Like: 30°
Wind Chill: 30° Ceiling: 300
Heat Index: 38° Visibility: 1.5mi
Dew Point: 37° Wind: 14mph
Humidity: 97% Direction: 40° (NE)
Pressure: 29.62in Gusts: 0mph
Raw Report DataKBKL 231503Z 04012KT 1 1/2SM BR OVC003 03/03 A2962 RMK AO2 T00330028
Traffic Incident Summary
Active as of:
Severity:
Category:
InformationThere was an issue retrieving the traffic information for this location. Please try a different location or try again shortly.
Advertisements
Track Severe Weather on mobile